Norwood, CO

8:33 AM MST on February 06, 2016 (GMT -0700)
ESE of Norwood, CO | | Change Station
CLOSE
Current Station
Personal Weather Station
Location: Norwood, CO
Elevation: 7674 ft
Nearby Weather Stations

Elev 7674 ft 38.09 °N, 108.22 °W | Updated 83 days ago

Clear
Clear
28 °F
Feels Like 28 °F
N
3
Wind Variable Wind from WNW
Gusts mph

Today
High -- | Low -- °F
--% Chance of Precip.
Yesterday
High -- | Low -- °F
Precip. -- in
Pressure 30.58 in
Visibility 10.0 miles
Clouds Clear
Dew Point 10 °F
Humidity 47%
Rainfall in
Snow Depth Not available.
7:13 AM 5:41 PM
Waning Crescent, 5% visible
METAR KAIB 061515Z AUTO 10003KT 10SM CLR M11/M16 A3058 RMK AO2
Pressure 30.58 in
Visibility 10.0 miles
Clouds Clear
Dew Point 10 °F
Humidity 47%
Rainfall in
Snow Depth Not available.
7:13 AM 5:41 PM
Waning Crescent, 5% visible
METAR KAIB 061515Z AUTO 10003KT 10SM CLR M11/M16 A3058 RMK AO2

10-Day Weather Forecast

Almanac

Astronomy

Feb. 06, 2016 Rise Set
Actual Time
Civil Twilight
Nautical Twilight
Astronomical Twilight
Moon
Length of Visible Light
Length of Day
Tomorrow will be .
, % of the Moon is Illuminated

Today's Extremes

State Highs State Lows

Community

WunderPhotos

Upload Photos

1,890,987 photos uploaded!

WunderBlog® & News

Nearby

Air Quality

  Air Quality AQ Index Pollutant
Not available.

Snow Depth

Station Depth Elevation

Earthquake Activity

City Distance Mag. Time & Date
Minimum magnitude displayed is 2.5.

Coastal Water Temperatures

Place Temperature

Stations

Nearby Weather Stations

Station Location Temp. Windchill Dew Point Humidity Wind Precip. Elev Updated Type
                   

Watches & Warnings

There are currently no watches in effect.